kinetic.ch

Domain rank for kinetic.ch

Date Domain Rank Page Rank Harmonic Centrality
2017-08-08 4.99 7.11 0.76
2017-11-15 4.50 -0.49 arrow_drop_down 6.41 -0.70 arrow_drop_down 0.68 -0.08 arrow_drop_down
2018-02-27 4.42 -0.08 arrow_drop_down 6.31 -0.10 arrow_drop_down 0.62 -0.06 arrow_drop_down
2018-05-04 3.79 -0.63 arrow_drop_down 5.32 -0.99 arrow_drop_down 0.72 0.10 arrow_drop_up
2018-08-08 3.94 0.15 arrow_drop_up 5.66 0.34 arrow_drop_up 0.51 -0.21 arrow_drop_down
2018-11-07 4.24 0.30 arrow_drop_up 5.73 0.07 arrow_drop_up 1.27 0.76 arrow_drop_up
2019-02-05 3.79 -0.45 arrow_drop_down 5.34 -0.39 arrow_drop_down 0.71 -0.56 arrow_drop_down
2019-05-07 3.25 -0.54 arrow_drop_down 4.46 -0.88 arrow_drop_down 0.84 0.13 arrow_drop_up
2019-08-07 3.50 0.25 arrow_drop_up 4.75 0.29 arrow_drop_up 1.00 0.16 arrow_drop_up
2019-11-11 4.19 0.69 arrow_drop_up 5.00 0.25 arrow_drop_up 2.56 1.56 arrow_drop_up
2020-02-10 2.69 -1.50 arrow_drop_down 3.71 -1.29 arrow_drop_down 0.66 -1.90 arrow_drop_down
2020-06-16 4.89 2.20 arrow_drop_up 5.59 1.88 arrow_drop_up 3.50 2.84 arrow_drop_up

Position of kinetic.ch compared to other dot ch domains

Date Domain Position Page Rank Position Harmonic Centrality Position
2017-08-08 47,687 36,774 114,288
2017-11-15 53,154 -5,467 arrow_drop_down 41,677 -4,903 arrow_drop_down 122,063 -7,775 arrow_drop_down
2018-02-27 51,141 2,013 arrow_drop_up 39,251 2,426 arrow_drop_up 131,751 -9,688 arrow_drop_down
2018-05-04 66,560 -15,419 arrow_drop_down 57,101 -17,850 arrow_drop_down 120,861 10,890 arrow_drop_up
2018-08-08 62,594 3,966 arrow_drop_up 50,335 6,766 arrow_drop_up 145,520 -24,659 arrow_drop_down
2018-11-07 57,051 5,543 arrow_drop_up 48,809 1,526 arrow_drop_up 105,014 40,506 arrow_drop_up
2019-02-05 69,416 -12,365 arrow_drop_down 56,811 -8,002 arrow_drop_down 174,236 -69,222 arrow_drop_down
2019-05-07 88,288 -18,872 arrow_drop_down 75,967 -19,156 arrow_drop_down 157,760 16,476 arrow_drop_up
2019-08-07 78,591 9,697 arrow_drop_up 67,781 8,186 arrow_drop_up 142,171 15,589 arrow_drop_up
2019-11-11 55,846 22,745 arrow_drop_up 58,134 9,647 arrow_drop_up 73,251 68,920 arrow_drop_up
2020-02-10 111,247 -55,401 arrow_drop_down 89,716 -31,582 arrow_drop_down 219,112 -145,861 arrow_drop_down
2020-06-16 42,308 68,939 arrow_drop_up 46,788 42,928 arrow_drop_up 60,008 159,104 arrow_drop_up

Search trend for kinetic